createdAt,value
2023-05-10T00:03:13.065Z,1.97
2023-05-10T00:08:14.722Z,1.87
2023-05-10T00:13:16.757Z,1.70
2023-05-10T00:18:18.395Z,1.80
2023-05-10T00:23:20.272Z,1.83
2023-05-10T00:28:21.951Z,1.83
2023-05-10T00:33:23.633Z,2.10
2023-05-10T00:38:25.596Z,1.63
2023-05-10T00:43:27.315Z,1.87
2023-05-10T00:48:30.394Z,2.10
2023-05-10T00:53:33.429Z,1.83
2023-05-10T00:58:35.142Z,2.10
2023-05-10T01:03:39.023Z,1.70
2023-05-10T01:08:41.137Z,1.80
2023-05-10T01:13:44.587Z,2.23
2023-05-10T01:18:46.667Z,2.10
2023-05-10T01:24:06.791Z,2.23
2023-05-10T01:29:44.653Z,2.50
2023-05-10T01:35:00.813Z,2.20
2023-05-10T01:40:08.229Z,2.43
2023-05-10T01:45:26.701Z,3.00
2023-05-10T01:50:31.093Z,3.10
2023-05-10T01:55:37.141Z,3.30
2023-05-10T02:00:43.962Z,3.27
2023-05-10T02:05:47.865Z,3.57
2023-05-10T02:10:52.554Z,3.33
2023-05-10T02:15:55.376Z,4.00
2023-05-10T02:20:59.040Z,3.50
2023-05-10T02:26:02.925Z,4.20
2023-05-10T02:31:06.241Z,4.07
2023-05-10T02:36:09.990Z,4.33
2023-05-10T02:41:13.165Z,3.63
2023-05-10T02:46:14.853Z,3.80
2023-05-10T02:51:19.235Z,3.97
2023-05-10T02:56:34.272Z,3.90
2023-05-10T03:01:36.131Z,4.70
2023-05-10T03:06:37.826Z,3.80
2023-05-10T03:11:49.957Z,4.10
2023-05-10T03:17:05.293Z,4.10
2023-05-10T03:22:11.617Z,3.97
2023-05-10T03:27:15.905Z,4.17
2023-05-10T03:32:17.535Z,3.73
2023-05-10T03:37:19.121Z,4.13
2023-05-10T03:42:20.817Z,3.90
2023-05-10T03:47:22.474Z,4.07
2023-05-10T03:52:24.037Z,3.73
2023-05-10T03:57:25.705Z,3.47
2023-05-10T04:02:27.465Z,3.70
2023-05-10T04:07:29.509Z,3.80
2023-05-10T04:12:31.065Z,3.97
2023-05-10T04:17:32.677Z,4.03
2023-05-10T04:22:34.214Z,4.00
2023-05-10T04:27:35.786Z,3.90
2023-05-10T04:32:37.461Z,4.07
2023-05-10T04:37:39.053Z,4.47
2023-05-10T04:42:44.898Z,4.53
2023-05-10T04:47:46.492Z,4.53
2023-05-10T04:52:48.087Z,5.40
2023-05-10T04:57:49.764Z,4.83
2023-05-10T05:02:51.406Z,4.67
2023-05-10T05:07:53.141Z,4.37
2023-05-10T05:12:54.767Z,3.57
2023-05-10T05:17:56.419Z,3.70
2023-05-10T05:22:58.083Z,4.30
2023-05-10T05:27:59.694Z,3.80
2023-05-10T05:33:01.348Z,3.60
2023-05-10T05:38:02.915Z,3.30
2023-05-10T05:43:04.595Z,3.00
2023-05-10T05:48:06.343Z,3.47
2023-05-10T05:53:07.921Z,3.57
2023-05-10T05:58:09.455Z,3.40
2023-05-10T06:03:11.595Z,3.10
2023-05-10T06:08:13.230Z,2.90
2023-05-10T06:13:14.880Z,2.70
2023-05-10T06:18:16.454Z,2.60
2023-05-10T06:23:18.164Z,2.60
2023-05-10T06:28:19.731Z,2.63
2023-05-10T06:33:21.294Z,2.43
2023-05-10T06:38:23.030Z,2.40
2023-05-10T06:43:25.855Z,2.23
2023-05-10T06:48:27.429Z,2.37
2023-05-10T06:53:29.036Z,2.70
2023-05-10T06:58:30.613Z,2.50
2023-05-10T07:03:32.878Z,2.70
2023-05-10T07:08:35.334Z,2.67
2023-05-10T07:13:37.478Z,2.53
2023-05-10T07:18:39.122Z,2.17
2023-05-10T07:23:42.074Z,2.07
2023-05-10T07:28:44.515Z,2.67
2023-05-10T07:33:46.831Z,2.00
2023-05-10T07:38:48.441Z,1.97
2023-05-10T07:43:50.038Z,2.07
2023-05-10T07:48:51.660Z,2.00
2023-05-10T07:53:53.375Z,1.97
2023-05-10T07:58:55.379Z,2.10
2023-05-10T08:03:57.041Z,2.20
2023-05-10T08:08:58.714Z,2.33
2023-05-10T08:14:00.313Z,1.63
2023-05-10T08:19:02.085Z,1.50
2023-05-10T08:24:03.805Z,2.10
2023-05-10T08:29:05.794Z,2.10
2023-05-10T08:34:07.471Z,1.80
2023-05-10T08:39:16.253Z,2.70
2023-05-10T08:44:25.069Z,1.60
2023-05-10T08:49:28.714Z,1.50
2023-05-10T08:54:31.995Z,1.60
2023-05-10T08:59:34.176Z,1.40
2023-05-10T09:04:36.226Z,1.60
2023-05-10T11:51:48.359Z,1.80
2023-05-10T11:56:51.099Z,2.80
2023-05-10T12:01:52.863Z,1.63
2023-05-10T12:06:54.701Z,1.83
2023-05-10T12:12:00.538Z,1.87
2023-05-10T12:17:02.125Z,1.70
2023-05-10T12:22:06.380Z,1.70
2023-05-10T12:27:09.705Z,1.70
2023-05-10T12:32:11.595Z,1.20
2023-05-10T12:37:13.449Z,1.30
2023-05-10T12:42:15.006Z,1.60
2023-05-10T12:47:16.598Z,1.40
2023-05-10T12:52:18.173Z,1.33
2023-05-10T12:57:21.241Z,1.90
2023-05-10T13:02:24.105Z,1.40
2023-05-10T13:07:25.708Z,1.33
2023-05-10T13:12:27.360Z,1.43
2023-05-10T13:17:28.919Z,1.30
2023-05-10T13:22:39.603Z,1.27
2023-05-10T13:27:41.971Z,1.23
2023-05-10T13:32:43.585Z,1.30
2023-05-10T13:37:45.206Z,1.30
2023-05-10T13:42:46.987Z,1.67
2023-05-10T13:47:48.560Z,1.47
2023-05-10T13:52:50.181Z,1.20
2023-05-10T13:57:51.753Z,2.00
2023-05-10T14:02:53.420Z,1.90
2023-05-10T14:07:55.097Z,2.30
2023-05-10T14:12:59.737Z,2.00
2023-05-10T14:18:01.572Z,2.77
2023-05-10T14:23:03.462Z,1.93
2023-05-10T14:28:05.350Z,1.50
2023-05-10T14:33:07.006Z,1.80
2023-05-10T14:38:08.711Z,1.20
2023-05-10T14:43:10.301Z,1.80
2023-05-10T14:48:16.318Z,1.30
2023-05-10T14:53:17.994Z,1.30
2023-05-10T14:58:19.531Z,1.50
2023-05-10T15:03:21.248Z,1.40
2023-05-10T15:08:24.848Z,1.17
2023-05-10T15:13:26.427Z,1.20
2023-05-10T15:18:28.033Z,1.70
2023-05-10T15:23:30.847Z,1.40
2023-05-10T15:28:34.226Z,1.50
2023-05-10T15:33:37.997Z,1.03
2023-05-10T15:38:39.613Z,1.33
2023-05-10T15:43:41.614Z,1.40
2023-05-10T15:48:43.600Z,1.10
2023-05-10T15:54:00.528Z,1.40
2023-05-10T15:59:08.749Z,1.30
2023-05-10T16:04:10.443Z,1.47
2023-05-10T16:09:12.132Z,3.53
2023-05-10T16:14:13.838Z,1.50
2023-05-10T16:19:15.987Z,1.00
2023-05-10T16:24:17.730Z,2.00
2023-05-10T16:29:19.285Z,1.30
2023-05-10T16:34:24.241Z,1.30
2023-05-10T16:39:26.014Z,1.30
2023-05-10T16:44:27.773Z,1.00
2023-05-10T16:49:29.377Z,1.20
2023-05-10T16:54:31.300Z,1.00
2023-05-10T16:59:32.894Z,1.23
2023-05-10T17:04:34.978Z,1.00
2023-05-10T17:09:36.676Z,1.10
2023-05-10T17:14:38.489Z,1.17
2023-05-10T17:19:40.278Z,1.30
2023-05-10T17:24:41.877Z,1.60
2023-05-10T17:29:43.554Z,1.60
2023-05-10T17:34:45.152Z,1.53
2023-05-10T17:39:46.828Z,1.40
2023-05-10T17:44:48.537Z,1.30
2023-05-10T17:49:50.343Z,1.30
2023-05-10T17:54:53.316Z,1.20
2023-05-10T17:59:54.962Z,1.40
2023-05-10T18:04:59.133Z,1.33
2023-05-10T18:10:01.673Z,1.13
2023-05-10T18:15:03.668Z,1.30
2023-05-10T18:20:06.210Z,1.00
2023-05-10T18:25:08.238Z,1.73
2023-05-10T18:30:12.293Z,1.30
2023-05-10T18:35:14.190Z,1.50
2023-05-10T18:40:17.533Z,1.20
2023-05-10T18:45:19.521Z,1.37
2023-05-10T18:50:21.512Z,1.60
2023-05-10T18:55:25.831Z,1.30
2023-05-10T19:00:27.485Z,1.57
2023-05-10T19:05:29.976Z,1.40
2023-05-10T19:10:31.535Z,1.60
2023-05-10T19:15:33.172Z,1.63
2023-05-10T19:20:36.204Z,1.77
2023-05-10T19:25:39.245Z,1.37
2023-05-10T19:30:40.992Z,1.67
2023-05-10T19:35:42.747Z,1.70
2023-05-10T19:40:45.098Z,2.00
2023-05-10T19:45:46.746Z,1.50
2023-05-10T19:50:48.364Z,1.50
2023-05-10T19:55:50.045Z,1.40
2023-05-10T20:00:51.700Z,1.70
2023-05-10T20:05:53.403Z,1.60
2023-05-10T20:10:57.721Z,1.40
2023-05-10T20:15:59.892Z,1.57
2023-05-10T20:21:01.581Z,2.30
2023-05-10T20:26:03.674Z,2.00
2023-05-10T20:31:05.368Z,1.60
2023-05-10T20:36:09.557Z,1.50
2023-05-10T20:41:11.191Z,1.50
2023-05-10T20:46:13.082Z,1.50
2023-05-10T20:51:14.810Z,1.70
2023-05-10T20:56:16.621Z,1.40
2023-05-10T21:01:18.345Z,1.60
2023-05-10T21:06:20.024Z,1.70
2023-05-10T21:11:22.445Z,1.73
2023-05-10T21:16:24.098Z,1.60
2023-05-10T21:21:25.924Z,2.13
2023-05-10T21:26:27.486Z,1.47
2023-05-10T21:31:29.127Z,1.63
2023-05-10T21:36:30.859Z,1.50
2023-05-10T21:41:32.429Z,1.47
2023-05-10T21:46:34.236Z,1.70
2023-05-10T21:51:35.866Z,1.40
2023-05-10T21:56:37.622Z,1.60
2023-05-10T22:01:39.670Z,1.70
2023-05-10T22:06:41.392Z,1.50
2023-05-10T22:11:43.036Z,1.40
2023-05-10T22:16:44.864Z,2.33
2023-05-10T22:21:46.601Z,1.67
2023-05-10T22:26:48.241Z,1.40
2023-05-10T22:31:50.166Z,1.33
2023-05-10T22:36:51.831Z,1.40
2023-05-10T22:41:53.451Z,1.60
2023-05-10T22:46:55.142Z,1.70
2023-05-10T22:51:56.753Z,1.53
2023-05-10T22:56:58.356Z,1.80
2023-05-10T23:01:59.974Z,1.53
2023-05-10T23:07:01.590Z,1.60
2023-05-10T23:12:03.410Z,1.50
2023-05-10T23:17:05.067Z,1.50
2023-05-10T23:22:06.704Z,1.40
2023-05-10T23:27:08.330Z,1.60
2023-05-10T23:32:10.101Z,1.50
2023-05-10T23:37:11.714Z,1.43
2023-05-10T23:42:13.417Z,1.80
2023-05-10T23:47:15.053Z,1.97
2023-05-10T23:52:17.611Z,1.67
2023-05-10T23:57:19.406Z,1.90
